Rzeszow, Poland
Current Conditions -  °F | °C
As of 8:30 PM on Wednesday 26 Nov 2014 (Local Time) from EPRZ Reporting Station
Light Snow Light Snow  
Wind Chill: 26°   Ceiling: 100
Heat Index: 32°   Visibility: 0.25mi
Dew Point: 32°   Wind: 7mph
Humidity: 100%   Direction: 80°E
Pressure: 30.24"   Gusts: NA
Location:  50.05°N, 22°E
Report Text: EPRZ 261830Z 08006KT 0400 R27/0800 -SN FZFG VV001 M00/M00 Q1024
Loading
Personal Weather Stations






























Interactive Weather Map New forecast layout! Learn more

10-Day Weather Forecast

Advertisements
Track Severe Weather on mobile